sensor_id;sensor_type;location;lat;lon;timestamp;temperature;humidity
9497;DHT22;4786;51.270;4.456;2023-05-10T00:00:34;15.10;99.90
9497;DHT22;4786;51.270;4.456;2023-05-10T00:03:00;15.00;99.90
9497;DHT22;4786;51.270;4.456;2023-05-10T00:05:25;15.00;99.90
9497;DHT22;4786;51.270;4.456;2023-05-10T00:07:52;14.90;99.90
9497;DHT22;4786;51.270;4.456;2023-05-10T00:10:18;15.00;99.90
9497;DHT22;4786;51.270;4.456;2023-05-10T00:12:43;15.00;99.90
9497;DHT22;4786;51.270;4.456;2023-05-10T00:15:10;15.00;99.90
9497;DHT22;4786;51.270;4.456;2023-05-10T00:17:36;14.90;99.90
9497;DHT22;4786;51.270;4.456;2023-05-10T00:20:03;14.80;99.90
9497;DHT22;4786;51.270;4.456;2023-05-10T00:22:30;14.80;99.90
9497;DHT22;4786;51.270;4.456;2023-05-10T00:24:57;14.70;99.90
9497;DHT22;4786;51.270;4.456;2023-05-10T00:27:23;14.70;99.90
9497;DHT22;4786;51.270;4.456;2023-05-10T00:29:49;14.70;99.90
9497;DHT22;4786;51.270;4.456;2023-05-10T00:32:15;14.70;99.90
9497;DHT22;4786;51.270;4.456;2023-05-10T00:34:41;14.70;99.90
9497;DHT22;4786;51.270;4.456;2023-05-10T00:37:08;14.70;99.90
9497;DHT22;4786;51.270;4.456;2023-05-10T00:39:33;14.70;99.90
9497;DHT22;4786;51.270;4.456;2023-05-10T00:41:59;14.80;99.90
9497;DHT22;4786;51.270;4.456;2023-05-10T00:44:25;14.70;99.90
9497;DHT22;4786;51.270;4.456;2023-05-10T00:46:53;14.60;99.90
9497;DHT22;4786;51.270;4.456;2023-05-10T00:49:19;14.60;99.90
9497;DHT22;4786;51.270;4.456;2023-05-10T00:51:46;14.60;99.90
9497;DHT22;4786;51.270;4.456;2023-05-10T00:54:14;14.60;99.90
9497;DHT22;4786;51.270;4.456;2023-05-10T00:56:40;14.60;99.90
9497;DHT22;4786;51.270;4.456;2023-05-10T00:59:09;14.70;99.90
9497;DHT22;4786;51.270;4.456;2023-05-10T01:01:36;14.60;99.90
9497;DHT22;4786;51.270;4.456;2023-05-10T01:04:02;14.60;99.90
9497;DHT22;4786;51.270;4.456;2023-05-10T01:06:28;14.60;99.90
9497;DHT22;4786;51.270;4.456;2023-05-10T01:08:55;14.70;99.90
9497;DHT22;4786;51.270;4.456;2023-05-10T01:11:21;14.70;99.90
9497;DHT22;4786;51.270;4.456;2023-05-10T01:13:52;14.70;99.90
9497;DHT22;4786;51.270;4.456;2023-05-10T01:16:21;14.60;99.90
9497;DHT22;4786;51.270;4.456;2023-05-10T01:18:47;14.60;99.90
9497;DHT22;4786;51.270;4.456;2023-05-10T01:35:00;14.40;99.90
9497;DHT22;4786;51.270;4.456;2023-05-10T01:42:53;14.40;99.90
9497;DHT22;4786;51.270;4.456;2023-05-10T01:45:27;14.30;99.90
9497;DHT22;4786;51.270;4.456;2023-05-10T01:48:10;14.30;99.90
9497;DHT22;4786;51.270;4.456;2023-05-10T01:50:43;14.20;99.90
9497;DHT22;4786;51.270;4.456;2023-05-10T01:53:12;14.20;99.90
9497;DHT22;4786;51.270;4.456;2023-05-10T01:55:56;14.10;99.90
9497;DHT22;4786;51.270;4.456;2023-05-10T01:58:28;14.10;99.90
9497;DHT22;4786;51.270;4.456;2023-05-10T02:00:56;14.10;99.90
9497;DHT22;4786;51.270;4.456;2023-05-10T02:03:24;14.20;99.90
9497;DHT22;4786;51.270;4.456;2023-05-10T02:05:52;14.30;99.90
9497;DHT22;4786;51.270;4.456;2023-05-10T02:08:21;14.20;99.90
9497;DHT22;4786;51.270;4.456;2023-05-10T02:10:50;14.30;99.90
9497;DHT22;4786;51.270;4.456;2023-05-10T02:13:17;14.60;99.90
9497;DHT22;4786;51.270;4.456;2023-05-10T02:15:43;14.30;99.90
9497;DHT22;4786;51.270;4.456;2023-05-10T02:18:13;14.30;99.90
9497;DHT22;4786;51.270;4.456;2023-05-10T02:20:40;14.30;99.90
9497;DHT22;4786;51.270;4.456;2023-05-10T02:23:08;14.30;99.90
9497;DHT22;4786;51.270;4.456;2023-05-10T02:25:34;14.30;99.90
9497;DHT22;4786;51.270;4.456;2023-05-10T02:28:02;14.30;99.90
9497;DHT22;4786;51.270;4.456;2023-05-10T02:30:31;14.30;99.90
9497;DHT22;4786;51.270;4.456;2023-05-10T02:32:58;14.30;99.90
9497;DHT22;4786;51.270;4.456;2023-05-10T02:35:26;14.30;99.90
9497;DHT22;4786;51.270;4.456;2023-05-10T02:37:53;14.30;99.90
9497;DHT22;4786;51.270;4.456;2023-05-10T02:40:21;14.30;99.90
9497;DHT22;4786;51.270;4.456;2023-05-10T02:42:48;14.30;99.90
9497;DHT22;4786;51.270;4.456;2023-05-10T02:45:19;14.30;99.90
9497;DHT22;4786;51.270;4.456;2023-05-10T02:47:46;14.40;99.90
9497;DHT22;4786;51.270;4.456;2023-05-10T02:50:13;14.30;99.90
9497;DHT22;4786;51.270;4.456;2023-05-10T02:52:42;14.40;99.90
9497;DHT22;4786;51.270;4.456;2023-05-10T02:55:12;14.30;99.90
9497;DHT22;4786;51.270;4.456;2023-05-10T02:57:44;14.30;99.90
9497;DHT22;4786;51.270;4.456;2023-05-10T03:00:14;14.40;99.90
9497;DHT22;4786;51.270;4.456;2023-05-10T03:02:40;14.30;99.90
9497;DHT22;4786;51.270;4.456;2023-05-10T03:05:06;14.30;99.90
9497;DHT22;4786;51.270;4.456;2023-05-10T03:07:33;14.30;99.90
9497;DHT22;4786;51.270;4.456;2023-05-10T03:09:59;14.20;99.90
9497;DHT22;4786;51.270;4.456;2023-05-10T03:12:47;14.30;99.90
9497;DHT22;4786;51.270;4.456;2023-05-10T03:15:47;14.30;99.90
9497;DHT22;4786;51.270;4.456;2023-05-10T03:18:18;14.30;99.90
9497;DHT22;4786;51.270;4.456;2023-05-10T03:20:51;14.30;99.90
9497;DHT22;4786;51.270;4.456;2023-05-10T03:25:58;14.10;99.90
9497;DHT22;4786;51.270;4.456;2023-05-10T03:28:26;14.20;99.90
9497;DHT22;4786;51.270;4.456;2023-05-10T03:30:53;14.10;99.90
9497;DHT22;4786;51.270;4.456;2023-05-10T03:33:20;14.10;99.90
9497;DHT22;4786;51.270;4.456;2023-05-10T03:35:46;14.00;99.90
9497;DHT22;4786;51.270;4.456;2023-05-10T03:38:12;14.10;99.90
9497;DHT22;4786;51.270;4.456;2023-05-10T03:40:39;14.10;99.90
9497;DHT22;4786;51.270;4.456;2023-05-10T03:43:05;14.00;99.90
9497;DHT22;4786;51.270;4.456;2023-05-10T03:45:31;13.90;99.90
9497;DHT22;4786;51.270;4.456;2023-05-10T03:47:57;14.00;99.90
9497;DHT22;4786;51.270;4.456;2023-05-10T03:50:23;14.00;99.90
9497;DHT22;4786;51.270;4.456;2023-05-10T03:52:49;14.00;99.90
9497;DHT22;4786;51.270;4.456;2023-05-10T03:55:15;14.00;99.90
9497;DHT22;4786;51.270;4.456;2023-05-10T03:57:41;14.00;99.90
9497;DHT22;4786;51.270;4.456;2023-05-10T04:00:08;14.00;99.90
9497;DHT22;4786;51.270;4.456;2023-05-10T04:02:34;14.10;99.90
9497;DHT22;4786;51.270;4.456;2023-05-10T04:05:00;14.10;99.90
9497;DHT22;4786;51.270;4.456;2023-05-10T04:07:26;14.10;99.90
9497;DHT22;4786;51.270;4.456;2023-05-10T04:09:52;14.10;99.90
9497;DHT22;4786;51.270;4.456;2023-05-10T04:12:18;14.10;99.90
9497;DHT22;4786;51.270;4.456;2023-05-10T04:14:45;14.10;99.90
9497;DHT22;4786;51.270;4.456;2023-05-10T04:17:11;14.10;99.90
9497;DHT22;4786;51.270;4.456;2023-05-10T04:19:36;14.10;99.90
9497;DHT22;4786;51.270;4.456;2023-05-10T04:22:03;14.00;99.90
9497;DHT22;4786;51.270;4.456;2023-05-10T04:24:29;14.00;99.90
9497;DHT22;4786;51.270;4.456;2023-05-10T04:26:55;14.00;99.90
9497;DHT22;4786;51.270;4.456;2023-05-10T04:29:21;14.00;99.90
9497;DHT22;4786;51.270;4.456;2023-05-10T04:31:47;14.10;99.90
9497;DHT22;4786;51.270;4.456;2023-05-10T04:34:12;14.10;99.90
9497;DHT22;4786;51.270;4.456;2023-05-10T04:36:38;14.10;99.90
9497;DHT22;4786;51.270;4.456;2023-05-10T04:39:05;14.10;99.90
9497;DHT22;4786;51.270;4.456;2023-05-10T04:41:31;14.10;99.90
9497;DHT22;4786;51.270;4.456;2023-05-10T04:43:57;14.10;99.90
9497;DHT22;4786;51.270;4.456;2023-05-10T04:46:23;14.10;99.90
9497;DHT22;4786;51.270;4.456;2023-05-10T04:48:50;14.20;99.90
9497;DHT22;4786;51.270;4.456;2023-05-10T04:51:15;14.20;99.90
9497;DHT22;4786;51.270;4.456;2023-05-10T04:53:42;14.10;99.90
9497;DHT22;4786;51.270;4.456;2023-05-10T04:56:07;14.10;99.90
9497;DHT22;4786;51.270;4.456;2023-05-10T04:58:33;14.10;99.90
9497;DHT22;4786;51.270;4.456;2023-05-10T05:01:09;14.10;99.90
9497;DHT22;4786;51.270;4.456;2023-05-10T05:03:36;14.10;99.90
9497;DHT22;4786;51.270;4.456;2023-05-10T05:06:02;14.10;99.90
9497;DHT22;4786;51.270;4.456;2023-05-10T05:08:27;14.10;99.90
9497;DHT22;4786;51.270;4.456;2023-05-10T05:10:53;14.10;99.90
9497;DHT22;4786;51.270;4.456;2023-05-10T05:13:19;14.10;99.90
9497;DHT22;4786;51.270;4.456;2023-05-10T05:15:45;14.10;99.90
9497;DHT22;4786;51.270;4.456;2023-05-10T05:18:12;14.10;99.90
9497;DHT22;4786;51.270;4.456;2023-05-10T05:20:37;14.10;99.90
9497;DHT22;4786;51.270;4.456;2023-05-10T05:23:03;14.20;99.90
9497;DHT22;4786;51.270;4.456;2023-05-10T05:25:29;14.20;99.90
9497;DHT22;4786;51.270;4.456;2023-05-10T05:27:55;14.20;99.90
9497;DHT22;4786;51.270;4.456;2023-05-10T05:30:20;14.20;99.90
9497;DHT22;4786;51.270;4.456;2023-05-10T05:32:46;14.30;99.90
9497;DHT22;4786;51.270;4.456;2023-05-10T05:35:31;14.30;99.90
9497;DHT22;4786;51.270;4.456;2023-05-10T05:37:57;14.40;99.90
9497;DHT22;4786;51.270;4.456;2023-05-10T05:40:23;14.60;99.90
9497;DHT22;4786;51.270;4.456;2023-05-10T05:42:49;14.80;99.90
9497;DHT22;4786;51.270;4.456;2023-05-10T05:45:15;14.90;99.90
9497;DHT22;4786;51.270;4.456;2023-05-10T05:47:40;15.20;99.90
9497;DHT22;4786;51.270;4.456;2023-05-10T05:50:07;15.50;99.90
9497;DHT22;4786;51.270;4.456;2023-05-10T05:52:33;15.80;99.90
9497;DHT22;4786;51.270;4.456;2023-05-10T05:54:59;15.90;99.90
9497;DHT22;4786;51.270;4.456;2023-05-10T05:57:25;16.00;99.90
9497;DHT22;4786;51.270;4.456;2023-05-10T05:59:51;15.90;99.90
9497;DHT22;4786;51.270;4.456;2023-05-10T06:02:18;15.80;99.90
9497;DHT22;4786;51.270;4.456;2023-05-10T06:04:44;15.60;99.90
9497;DHT22;4786;51.270;4.456;2023-05-10T06:07:10;15.60;99.90
9497;DHT22;4786;51.270;4.456;2023-05-10T06:09:36;15.60;99.90
9497;DHT22;4786;51.270;4.456;2023-05-10T06:12:02;15.60;99.90
9497;DHT22;4786;51.270;4.456;2023-05-10T06:14:28;15.60;99.90
9497;DHT22;4786;51.270;4.456;2023-05-10T06:16:54;15.50;99.90
9497;DHT22;4786;51.270;4.456;2023-05-10T06:19:20;15.60;99.90
9497;DHT22;4786;51.270;4.456;2023-05-10T06:21:46;15.60;99.90
9497;DHT22;4786;51.270;4.456;2023-05-10T06:24:12;15.60;99.90
9497;DHT22;4786;51.270;4.456;2023-05-10T06:26:38;15.60;99.90
9497;DHT22;4786;51.270;4.456;2023-05-10T06:29:03;15.70;99.90
9497;DHT22;4786;51.270;4.456;2023-05-10T06:31:29;15.70;99.90
9497;DHT22;4786;51.270;4.456;2023-05-10T06:33:55;15.60;99.90
9497;DHT22;4786;51.270;4.456;2023-05-10T06:36:21;15.50;99.90
9497;DHT22;4786;51.270;4.456;2023-05-10T06:38:47;15.50;99.90
9497;DHT22;4786;51.270;4.456;2023-05-10T06:41:13;15.50;99.90
9497;DHT22;4786;51.270;4.456;2023-05-10T06:43:39;15.50;99.90
9497;DHT22;4786;51.270;4.456;2023-05-10T06:46:07;15.50;99.90
9497;DHT22;4786;51.270;4.456;2023-05-10T06:48:33;15.50;99.90
9497;DHT22;4786;51.270;4.456;2023-05-10T06:50:59;15.50;99.90
9497;DHT22;4786;51.270;4.456;2023-05-10T06:53:25;15.60;99.90
9497;DHT22;4786;51.270;4.456;2023-05-10T06:55:51;15.60;99.90
9497;DHT22;4786;51.270;4.456;2023-05-10T06:58:17;15.70;99.90
9497;DHT22;4786;51.270;4.456;2023-05-10T07:00:43;15.90;99.90
9497;DHT22;4786;51.270;4.456;2023-05-10T07:03:10;15.90;99.90
9497;DHT22;4786;51.270;4.456;2023-05-10T07:05:36;15.90;99.90
9497;DHT22;4786;51.270;4.456;2023-05-10T07:08:03;15.90;99.90
9497;DHT22;4786;51.270;4.456;2023-05-10T07:10:29;15.90;99.90
9497;DHT22;4786;51.270;4.456;2023-05-10T07:12:55;16.00;99.90
9497;DHT22;4786;51.270;4.456;2023-05-10T07:15:21;16.00;99.90
9497;DHT22;4786;51.270;4.456;2023-05-10T07:17:47;16.00;99.90
9497;DHT22;4786;51.270;4.456;2023-05-10T07:20:13;15.90;99.90
9497;DHT22;4786;51.270;4.456;2023-05-10T07:22:39;15.80;99.90
9497;DHT22;4786;51.270;4.456;2023-05-10T07:25:05;15.80;99.90
9497;DHT22;4786;51.270;4.456;2023-05-10T07:27:31;15.80;99.90
9497;DHT22;4786;51.270;4.456;2023-05-10T07:29:57;15.90;99.90
9497;DHT22;4786;51.270;4.456;2023-05-10T07:32:24;15.80;99.90
9497;DHT22;4786;51.270;4.456;2023-05-10T07:34:50;15.80;99.90
9497;DHT22;4786;51.270;4.456;2023-05-10T07:37:15;15.90;99.90
9497;DHT22;4786;51.270;4.456;2023-05-10T07:39:41;15.80;99.90
9497;DHT22;4786;51.270;4.456;2023-05-10T07:42:08;15.70;99.90
9497;DHT22;4786;51.270;4.456;2023-05-10T07:44:34;15.70;99.90
9497;DHT22;4786;51.270;4.456;2023-05-10T07:47:00;15.80;99.90
9497;DHT22;4786;51.270;4.456;2023-05-10T07:49:26;16.20;99.90
9497;DHT22;4786;51.270;4.456;2023-05-10T07:51:52;16.60;99.90
9497;DHT22;4786;51.270;4.456;2023-05-10T07:54:18;17.10;99.90
9497;DHT22;4786;51.270;4.456;2023-05-10T07:56:44;17.50;99.90
9497;DHT22;4786;51.270;4.456;2023-05-10T07:59:15;17.70;99.90
9497;DHT22;4786;51.270;4.456;2023-05-10T08:01:42;18.10;99.90
9497;DHT22;4786;51.270;4.456;2023-05-10T08:04:08;18.40;99.90
9497;DHT22;4786;51.270;4.456;2023-05-10T08:06:34;18.60;99.90
9497;DHT22;4786;51.270;4.456;2023-05-10T08:09:00;18.50;99.90
9497;DHT22;4786;51.270;4.456;2023-05-10T08:11:26;18.40;99.90
9497;DHT22;4786;51.270;4.456;2023-05-10T08:13:53;18.30;99.90
9497;DHT22;4786;51.270;4.456;2023-05-10T08:16:20;18.40;99.90
9497;DHT22;4786;51.270;4.456;2023-05-10T08:18:46;18.40;99.90
9497;DHT22;4786;51.270;4.456;2023-05-10T08:21:13;18.60;99.90
9497;DHT22;4786;51.270;4.456;2023-05-10T08:23:40;18.80;99.90
9497;DHT22;4786;51.270;4.456;2023-05-10T08:26:06;18.70;99.90
9497;DHT22;4786;51.270;4.456;2023-05-10T08:28:31;18.70;99.90
9497;DHT22;4786;51.270;4.456;2023-05-10T08:30:57;18.70;99.90
9497;DHT22;4786;51.270;4.456;2023-05-10T08:33:23;18.70;99.90
9497;DHT22;4786;51.270;4.456;2023-05-10T08:35:49;18.80;99.90
9497;DHT22;4786;51.270;4.456;2023-05-10T08:38:15;18.80;99.90
9497;DHT22;4786;51.270;4.456;2023-05-10T08:40:42;19.00;99.90
9497;DHT22;4786;51.270;4.456;2023-05-10T08:43:11;19.20;99.90
9497;DHT22;4786;51.270;4.456;2023-05-10T08:45:40;19.20;99.90
9497;DHT22;4786;51.270;4.456;2023-05-10T08:48:10;19.30;99.90
9497;DHT22;4786;51.270;4.456;2023-05-10T08:50:38;19.30;99.90
9497;DHT22;4786;51.270;4.456;2023-05-10T08:53:09;19.20;99.90
9497;DHT22;4786;51.270;4.456;2023-05-10T08:55:36;19.30;99.90
9497;DHT22;4786;51.270;4.456;2023-05-10T08:58:04;19.30;99.90
9497;DHT22;4786;51.270;4.456;2023-05-10T09:00:31;19.40;99.90
9497;DHT22;4786;51.270;4.456;2023-05-10T09:02:58;19.30;99.90
9497;DHT22;4786;51.270;4.456;2023-05-10T09:05:25;19.30;99.90
9497;DHT22;4786;51.270;4.456;2023-05-10T09:07:50;19.50;99.90
9497;DHT22;4786;51.270;4.456;2023-05-10T09:10:17;19.40;99.90
9497;DHT22;4786;51.270;4.456;2023-05-10T09:12:44;19.50;99.90
9497;DHT22;4786;51.270;4.456;2023-05-10T09:15:11;19.70;99.90
9497;DHT22;4786;51.270;4.456;2023-05-10T09:17:40;19.80;99.90
9497;DHT22;4786;51.270;4.456;2023-05-10T09:20:06;19.80;99.90
9497;DHT22;4786;51.270;4.456;2023-05-10T09:22:33;19.80;99.90
9497;DHT22;4786;51.270;4.456;2023-05-10T09:25:10;19.60;99.90
9497;DHT22;4786;51.270;4.456;2023-05-10T09:27:40;19.60;99.90
9497;DHT22;4786;51.270;4.456;2023-05-10T09:30:07;19.50;99.90
9497;DHT22;4786;51.270;4.456;2023-05-10T09:32:45;19.40;99.90
9497;DHT22;4786;51.270;4.456;2023-05-10T09:35:13;19.10;99.90
9497;DHT22;4786;51.270;4.456;2023-05-10T09:37:42;19.00;99.90
9497;DHT22;4786;51.270;4.456;2023-05-10T09:40:15;18.90;99.90
9497;DHT22;4786;51.270;4.456;2023-05-10T09:42:50;18.60;99.90
9497;DHT22;4786;51.270;4.456;2023-05-10T09:45:16;18.40;99.90
9497;DHT22;4786;51.270;4.456;2023-05-10T09:47:42;18.60;99.90
9497;DHT22;4786;51.270;4.456;2023-05-10T09:50:11;18.60;99.90
9497;DHT22;4786;51.270;4.456;2023-05-10T09:53:00;18.50;99.90
9497;DHT22;4786;51.270;4.456;2023-05-10T09:55:39;18.50;99.90
9497;DHT22;4786;51.270;4.456;2023-05-10T09:58:06;18.30;99.90
9497;DHT22;4786;51.270;4.456;2023-05-10T10:00:37;18.30;99.90
9497;DHT22;4786;51.270;4.456;2023-05-10T10:03:04;18.10;99.90
9497;DHT22;4786;51.270;4.456;2023-05-10T10:05:31;17.90;99.90
9497;DHT22;4786;51.270;4.456;2023-05-10T10:07:59;17.80;99.90
9497;DHT22;4786;51.270;4.456;2023-05-10T10:10:26;17.80;99.90
9497;DHT22;4786;51.270;4.456;2023-05-10T10:12:52;17.70;99.90
9497;DHT22;4786;51.270;4.456;2023-05-10T10:15:19;17.70;99.90
9497;DHT22;4786;51.270;4.456;2023-05-10T10:17:45;17.70;99.90
9497;DHT22;4786;51.270;4.456;2023-05-10T10:20:12;17.60;99.90
9497;DHT22;4786;51.270;4.456;2023-05-10T10:22:38;17.40;99.90
9497;DHT22;4786;51.270;4.456;2023-05-10T10:25:04;17.20;99.90
9497;DHT22;4786;51.270;4.456;2023-05-10T10:30:47;17.00;99.90
9497;DHT22;4786;51.270;4.456;2023-05-10T10:36:00;17.00;99.90
9497;DHT22;4786;51.270;4.456;2023-05-10T10:41:37;16.90;99.90
9497;DHT22;4786;51.270;4.456;2023-05-10T10:44:26;16.80;99.90
9497;DHT22;4786;51.270;4.456;2023-05-10T10:50:06;17.00;99.90
9497;DHT22;4786;51.270;4.456;2023-05-10T10:52:37;17.00;99.90
9497;DHT22;4786;51.270;4.456;2023-05-10T10:55:13;16.90;99.90
9497;DHT22;4786;51.270;4.456;2023-05-10T10:57:57;17.00;99.90
9497;DHT22;4786;51.270;4.456;2023-05-10T11:00:31;17.00;99.90
9497;DHT22;4786;51.270;4.456;2023-05-10T11:03:11;16.90;99.90
9497;DHT22;4786;51.270;4.456;2023-05-10T11:05:49;16.80;99.90
9497;DHT22;4786;51.270;4.456;2023-05-10T11:08:28;16.80;99.90
9497;DHT22;4786;51.270;4.456;2023-05-10T11:16:30;16.50;99.90
9497;DHT22;4786;51.270;4.456;2023-05-10T11:19:13;16.40;99.90
9497;DHT22;4786;51.270;4.456;2023-05-10T11:21:51;16.30;99.90
9497;DHT22;4786;51.270;4.456;2023-05-10T11:24:23;16.30;99.90
9497;DHT22;4786;51.270;4.456;2023-05-10T11:26:53;16.40;99.90
9497;DHT22;4786;51.270;4.456;2023-05-10T11:29:19;16.40;99.90
9497;DHT22;4786;51.270;4.456;2023-05-10T11:31:46;16.60;99.90
9497;DHT22;4786;51.270;4.456;2023-05-10T11:34:32;16.60;99.90
9497;DHT22;4786;51.270;4.456;2023-05-10T11:37:01;16.50;99.90
9497;DHT22;4786;51.270;4.456;2023-05-10T11:39:31;16.50;99.90
9497;DHT22;4786;51.270;4.456;2023-05-10T11:41:57;16.50;99.90
9497;DHT22;4786;51.270;4.456;2023-05-10T11:44:31;16.50;99.90
9497;DHT22;4786;51.270;4.456;2023-05-10T11:46:59;16.40;99.90
9497;DHT22;4786;51.270;4.456;2023-05-10T11:49:25;16.40;99.90
9497;DHT22;4786;51.270;4.456;2023-05-10T11:51:51;16.50;99.90
9497;DHT22;4786;51.270;4.456;2023-05-10T11:54:17;16.60;99.90
9497;DHT22;4786;51.270;4.456;2023-05-10T11:56:43;16.60;99.90
9497;DHT22;4786;51.270;4.456;2023-05-10T11:59:10;16.70;99.90
9497;DHT22;4786;51.270;4.456;2023-05-10T12:01:39;16.80;99.90
9497;DHT22;4786;51.270;4.456;2023-05-10T12:04:06;16.70;99.90
9497;DHT22;4786;51.270;4.456;2023-05-10T12:06:34;16.80;99.90
9497;DHT22;4786;51.270;4.456;2023-05-10T12:09:06;16.80;99.90
9497;DHT22;4786;51.270;4.456;2023-05-10T12:11:32;16.80;99.90
9497;DHT22;4786;51.270;4.456;2023-05-10T12:14:04;16.70;99.90
9497;DHT22;4786;51.270;4.456;2023-05-10T12:16:30;16.70;99.90
9497;DHT22;4786;51.270;4.456;2023-05-10T12:18:58;16.70;99.90
9497;DHT22;4786;51.270;4.456;2023-05-10T12:21:24;16.60;99.90
9497;DHT22;4786;51.270;4.456;2023-05-10T12:23:51;16.50;99.90
9497;DHT22;4786;51.270;4.456;2023-05-10T12:26:21;16.40;99.90
9497;DHT22;4786;51.270;4.456;2023-05-10T12:28:46;16.50;99.90
9497;DHT22;4786;51.270;4.456;2023-05-10T12:31:12;16.40;99.90
9497;DHT22;4786;51.270;4.456;2023-05-10T12:33:40;16.50;99.90
9497;DHT22;4786;51.270;4.456;2023-05-10T12:36:09;16.50;99.90
9497;DHT22;4786;51.270;4.456;2023-05-10T12:38:39;16.50;99.90
9497;DHT22;4786;51.270;4.456;2023-05-10T12:41:12;16.60;99.90
9497;DHT22;4786;51.270;4.456;2023-05-10T12:43:39;16.60;99.90
9497;DHT22;4786;51.270;4.456;2023-05-10T12:46:12;16.50;99.90
9497;DHT22;4786;51.270;4.456;2023-05-10T12:48:40;16.60;99.90
9497;DHT22;4786;51.270;4.456;2023-05-10T12:51:07;16.60;99.90
9497;DHT22;4786;51.270;4.456;2023-05-10T12:53:38;16.70;99.90
9497;DHT22;4786;51.270;4.456;2023-05-10T12:56:05;16.70;99.90
9497;DHT22;4786;51.270;4.456;2023-05-10T12:58:31;16.80;99.90
9497;DHT22;4786;51.270;4.456;2023-05-10T13:00:58;16.80;99.90
9497;DHT22;4786;51.270;4.456;2023-05-10T13:03:24;16.70;99.90
9497;DHT22;4786;51.270;4.456;2023-05-10T13:05:51;16.70;99.90
9497;DHT22;4786;51.270;4.456;2023-05-10T13:08:17;16.60;99.90
9497;DHT22;4786;51.270;4.456;2023-05-10T13:10:42;16.60;99.90
9497;DHT22;4786;51.270;4.456;2023-05-10T13:13:09;16.60;99.90
9497;DHT22;4786;51.270;4.456;2023-05-10T13:15:35;16.50;99.90
9497;DHT22;4786;51.270;4.456;2023-05-10T13:18:05;16.50;99.90
9497;DHT22;4786;51.270;4.456;2023-05-10T13:20:30;16.50;99.90
9497;DHT22;4786;51.270;4.456;2023-05-10T13:22:56;16.50;99.90
9497;DHT22;4786;51.270;4.456;2023-05-10T13:25:22;16.50;99.90
9497;DHT22;4786;51.270;4.456;2023-05-10T13:27:48;16.40;99.90
9497;DHT22;4786;51.270;4.456;2023-05-10T13:30:15;16.40;99.90
9497;DHT22;4786;51.270;4.456;2023-05-10T13:32:41;16.30;99.90
9497;DHT22;4786;51.270;4.456;2023-05-10T13:35:07;16.20;99.90
9497;DHT22;4786;51.270;4.456;2023-05-10T13:37:34;16.20;99.90
9497;DHT22;4786;51.270;4.456;2023-05-10T13:40:03;16.10;99.90
9497;DHT22;4786;51.270;4.456;2023-05-10T13:42:30;16.10;99.90
9497;DHT22;4786;51.270;4.456;2023-05-10T13:44:57;16.00;99.90
9497;DHT22;4786;51.270;4.456;2023-05-10T13:47:22;15.90;99.90
9497;DHT22;4786;51.270;4.456;2023-05-10T13:49:48;16.00;99.90
9497;DHT22;4786;51.270;4.456;2023-05-10T13:52:14;15.90;99.90
9497;DHT22;4786;51.270;4.456;2023-05-10T13:54:40;15.90;99.90
9497;DHT22;4786;51.270;4.456;2023-05-10T13:57:07;16.00;99.90
9497;DHT22;4786;51.270;4.456;2023-05-10T13:59:32;16.00;99.90
9497;DHT22;4786;51.270;4.456;2023-05-10T14:01:59;16.00;99.90
9497;DHT22;4786;51.270;4.456;2023-05-10T14:04:25;16.00;99.90
9497;DHT22;4786;51.270;4.456;2023-05-10T14:06:51;16.00;99.90
9497;DHT22;4786;51.270;4.456;2023-05-10T14:09:18;16.00;99.90
9497;DHT22;4786;51.270;4.456;2023-05-10T14:11:45;16.00;99.90
9497;DHT22;4786;51.270;4.456;2023-05-10T14:14:11;16.00;99.90
9497;DHT22;4786;51.270;4.456;2023-05-10T14:16:37;16.00;99.90
9497;DHT22;4786;51.270;4.456;2023-05-10T14:19:03;16.00;99.90
9497;DHT22;4786;51.270;4.456;2023-05-10T14:21:29;16.10;99.90
9497;DHT22;4786;51.270;4.456;2023-05-10T14:23:56;16.10;99.90
9497;DHT22;4786;51.270;4.456;2023-05-10T14:26:24;16.00;99.90
9497;DHT22;4786;51.270;4.456;2023-05-10T14:28:50;16.10;99.90
9497;DHT22;4786;51.270;4.456;2023-05-10T14:31:16;16.10;99.90
9497;DHT22;4786;51.270;4.456;2023-05-10T14:33:44;16.10;99.90
9497;DHT22;4786;51.270;4.456;2023-05-10T14:36:10;16.00;99.90
9497;DHT22;4786;51.270;4.456;2023-05-10T14:38:36;16.10;99.90
9497;DHT22;4786;51.270;4.456;2023-05-10T14:41:02;16.00;99.90
9497;DHT22;4786;51.270;4.456;2023-05-10T14:43:28;16.10;99.90
9497;DHT22;4786;51.270;4.456;2023-05-10T14:45:54;16.10;99.90
9497;DHT22;4786;51.270;4.456;2023-05-10T14:48:20;16.00;99.90
9497;DHT22;4786;51.270;4.456;2023-05-10T14:50:46;16.00;99.90
9497;DHT22;4786;51.270;4.456;2023-05-10T14:53:12;16.10;99.90
9497;DHT22;4786;51.270;4.456;2023-05-10T14:55:38;16.00;99.90
9497;DHT22;4786;51.270;4.456;2023-05-10T14:58:05;16.00;99.90
9497;DHT22;4786;51.270;4.456;2023-05-10T15:00:31;16.00;99.90
9497;DHT22;4786;51.270;4.456;2023-05-10T15:02:57;16.00;99.90
9497;DHT22;4786;51.270;4.456;2023-05-10T15:05:23;16.00;99.90
9497;DHT22;4786;51.270;4.456;2023-05-10T15:07:48;16.00;99.90
9497;DHT22;4786;51.270;4.456;2023-05-10T15:10:14;16.00;99.90
9497;DHT22;4786;51.270;4.456;2023-05-10T15:12:40;16.00;99.90
9497;DHT22;4786;51.270;4.456;2023-05-10T15:15:06;16.00;99.90
9497;DHT22;4786;51.270;4.456;2023-05-10T15:17:33;16.00;99.90
9497;DHT22;4786;51.270;4.456;2023-05-10T15:19:58;15.90;99.90
9497;DHT22;4786;51.270;4.456;2023-05-10T15:22:24;15.80;99.90
9497;DHT22;4786;51.270;4.456;2023-05-10T15:24:50;15.70;99.90
9497;DHT22;4786;51.270;4.456;2023-05-10T15:27:15;15.60;99.90
9497;DHT22;4786;51.270;4.456;2023-05-10T15:29:41;15.50;99.90
9497;DHT22;4786;51.270;4.456;2023-05-10T15:32:07;15.50;99.90
9497;DHT22;4786;51.270;4.456;2023-05-10T15:34:33;15.50;99.90
9497;DHT22;4786;51.270;4.456;2023-05-10T15:36:59;15.50;99.90
9497;DHT22;4786;51.270;4.456;2023-05-10T15:39:25;15.40;99.90
9497;DHT22;4786;51.270;4.456;2023-05-10T15:41:51;15.60;99.90
9497;DHT22;4786;51.270;4.456;2023-05-10T15:44:17;15.40;99.90
9497;DHT22;4786;51.270;4.456;2023-05-10T15:46:44;15.30;99.90
9497;DHT22;4786;51.270;4.456;2023-05-10T15:49:10;15.30;99.90
9497;DHT22;4786;51.270;4.456;2023-05-10T15:51:35;15.30;99.90
9497;DHT22;4786;51.270;4.456;2023-05-10T15:54:01;15.30;99.90
9497;DHT22;4786;51.270;4.456;2023-05-10T15:56:28;15.40;99.90
9497;DHT22;4786;51.270;4.456;2023-05-10T15:58:54;15.40;99.90
9497;DHT22;4786;51.270;4.456;2023-05-10T16:01:20;15.40;99.90
9497;DHT22;4786;51.270;4.456;2023-05-10T16:03:46;15.50;99.90
9497;DHT22;4786;51.270;4.456;2023-05-10T16:06:12;15.50;99.90
9497;DHT22;4786;51.270;4.456;2023-05-10T16:08:38;15.50;99.90
9497;DHT22;4786;51.270;4.456;2023-05-10T16:11:06;15.50;99.90
9497;DHT22;4786;51.270;4.456;2023-05-10T16:13:33;15.60;99.90
9497;DHT22;4786;51.270;4.456;2023-05-10T16:15:59;15.70;99.90
9497;DHT22;4786;51.270;4.456;2023-05-10T16:18:25;15.70;99.90
9497;DHT22;4786;51.270;4.456;2023-05-10T16:20:51;15.80;99.90
9497;DHT22;4786;51.270;4.456;2023-05-10T16:23:17;15.80;99.90
9497;DHT22;4786;51.270;4.456;2023-05-10T16:25:43;15.90;99.90
9497;DHT22;4786;51.270;4.456;2023-05-10T16:28:09;16.00;99.90
9497;DHT22;4786;51.270;4.456;2023-05-10T16:30:34;16.00;99.90
9497;DHT22;4786;51.270;4.456;2023-05-10T16:33:01;16.00;99.90
9497;DHT22;4786;51.270;4.456;2023-05-10T16:35:27;16.10;99.90
9497;DHT22;4786;51.270;4.456;2023-05-10T16:37:54;16.10;99.90
9497;DHT22;4786;51.270;4.456;2023-05-10T16:40:20;16.10;99.90
9497;DHT22;4786;51.270;4.456;2023-05-10T16:42:46;16.10;99.90